createdAt,value
2023-02-23T00:01:14.595Z,101162.13
2023-02-23T00:06:18.246Z,101181.03
2023-02-23T00:11:21.679Z,101176.81
2023-02-23T00:16:25.587Z,101183.09
2023-02-23T00:21:35.205Z,101178.75
2023-02-23T00:26:39.176Z,101185.63
2023-02-23T00:31:40.911Z,101185.56
2023-02-23T00:36:43.009Z,101187.94
2023-02-23T00:41:46.660Z,101177.47
2023-02-23T00:46:51.135Z,101175.16
2023-02-23T00:51:52.982Z,101182.34
2023-02-23T00:56:54.644Z,101196.53
2023-02-23T01:01:57.646Z,101184.56
2023-02-23T01:06:59.317Z,101185.25
2023-02-23T01:12:02.388Z,101171.91
2023-02-23T01:17:04.194Z,101179.28
2023-02-23T01:22:05.883Z,101179.28
2023-02-23T01:27:07.549Z,101182.34
2023-02-23T01:32:09.207Z,101182.03
2023-02-23T01:37:10.915Z,101185.78
2023-02-23T01:42:15.757Z,101188.84
2023-02-23T01:47:20.366Z,101184.94
2023-02-23T01:52:22.098Z,101186.81
2023-02-23T01:57:25.099Z,101181.34
2023-02-23T02:02:33.643Z,101181.63
2023-02-23T02:07:36.625Z,101180.00
2023-02-23T02:12:39.523Z,101178.66
2023-02-23T02:17:53.617Z,101184.28
2023-02-23T02:22:55.185Z,101193.31
2023-02-23T02:28:18.021Z,101188.31
2023-02-23T02:33:45.897Z,101189.00
2023-02-23T02:38:59.372Z,101170.50
2023-02-23T02:44:15.203Z,101177.88
2023-02-23T02:49:26.727Z,101173.41
2023-02-23T02:54:34.431Z,101178.59
2023-02-23T03:00:06.634Z,101187.81
2023-02-23T03:05:39.255Z,101193.78
2023-02-23T03:11:09.062Z,101197.56
2023-02-23T03:16:38.920Z,101200.47
2023-02-23T03:22:09.573Z,101203.69
2023-02-23T03:27:42.600Z,101199.53
2023-02-23T03:33:11.095Z,101205.00
2023-02-23T03:38:39.282Z,101211.50
2023-02-23T03:44:09.930Z,101213.94
2023-02-23T03:49:32.550Z,101212.75
2023-02-23T03:54:59.493Z,101218.94
2023-02-23T04:00:24.822Z,101220.44
2023-02-23T04:05:47.077Z,101222.69
2023-02-23T04:11:21.549Z,101228.50
2023-02-23T04:16:23.326Z,101234.06
2023-02-23T04:21:25.232Z,101234.22
2023-02-23T04:26:26.823Z,101234.22
2023-02-23T04:31:28.441Z,101229.44
2023-02-23T04:36:30.401Z,101235.38
2023-02-23T04:41:32.036Z,101236.72
2023-02-23T04:46:33.726Z,101241.78
2023-02-23T04:51:36.630Z,101250.44
2023-02-23T04:56:39.443Z,101252.47
2023-02-23T05:01:41.147Z,101261.41
2023-02-23T05:06:42.980Z,101259.72
2023-02-23T05:11:44.590Z,101255.50
2023-02-23T05:16:46.172Z,101257.38
2023-02-23T05:21:50.148Z,101265.59
2023-02-23T05:26:51.858Z,101265.75
2023-02-23T05:31:53.515Z,101269.75
2023-02-23T05:36:55.266Z,101278.69
2023-02-23T05:41:56.875Z,101283.88
2023-02-23T05:46:58.538Z,101284.72
2023-02-23T05:52:00.463Z,101279.53
2023-02-23T05:57:02.103Z,101268.59
2023-02-23T06:02:06.026Z,101271.31
2023-02-23T06:07:07.878Z,101273.22
2023-02-23T06:12:09.560Z,101282.00
2023-02-23T06:17:11.246Z,101286.47
2023-02-23T06:22:13.075Z,101293.38
2023-02-23T06:27:31.563Z,101292.97
2023-02-23T06:32:33.232Z,101295.56
2023-02-23T06:37:37.336Z,101306.97
2023-02-23T06:42:38.927Z,101311.28
2023-02-23T06:47:41.093Z,101318.34
2023-02-23T06:52:42.875Z,101318.50
2023-02-23T06:57:44.862Z,101330.16
2023-02-23T07:02:46.595Z,101329.16
2023-02-23T07:07:48.324Z,101343.88
2023-02-23T07:12:49.985Z,101357.75
2023-02-23T07:17:52.894Z,101368.41
2023-02-23T07:22:54.988Z,101367.53
2023-02-23T07:27:59.048Z,101378.81
2023-02-23T07:33:00.925Z,101381.69
2023-02-23T07:38:02.574Z,101397.28
2023-02-23T07:43:04.298Z,101396.72
2023-02-23T07:48:06.109Z,101398.00
2023-02-23T07:53:07.964Z,101411.31
2023-02-23T07:58:09.868Z,101410.13
2023-02-23T08:03:11.673Z,101421.66
2023-02-23T08:08:13.617Z,101423.09
2023-02-23T08:13:17.512Z,101424.38
2023-02-23T08:18:19.259Z,101431.81
2023-02-23T08:23:20.983Z,101433.84
2023-02-23T08:28:23.222Z,101441.06
2023-02-23T08:33:24.968Z,101447.25
2023-02-23T08:38:26.572Z,101448.97
2023-02-23T08:43:29.207Z,101463.56
2023-02-23T08:48:30.809Z,101455.50
2023-02-23T08:53:32.730Z,101454.03
2023-02-23T08:58:35.790Z,101458.63
2023-02-23T09:03:39.737Z,101456.44
2023-02-23T09:08:42.276Z,101462.06
2023-02-23T09:13:44.753Z,101474.47
2023-02-23T09:18:46.540Z,101480.13
2023-02-23T09:23:51.132Z,101476.81
2023-02-23T09:28:52.737Z,101475.06
2023-02-23T09:33:55.141Z,101475.66
2023-02-23T09:38:57.752Z,101476.38
2023-02-23T09:44:12.603Z,101482.84
2023-02-23T09:49:19.809Z,101494.09
2023-02-23T09:54:24.247Z,101499.31
2023-02-23T09:59:26.162Z,101497.28
2023-02-23T10:04:32.710Z,101503.28
2023-02-23T10:10:08.547Z,101510.19
2023-02-23T10:15:28.746Z,101518.75
2023-02-23T10:21:01.299Z,101524.81
2023-02-23T10:26:07.710Z,101529.84
2023-02-23T10:31:24.466Z,101526.94
2023-02-23T10:36:39.457Z,101523.88
2023-02-23T10:41:42.981Z,101525.81
2023-02-23T10:46:49.903Z,101534.88
2023-02-23T10:51:58.240Z,101535.00
2023-02-23T10:57:00.100Z,101539.63
2023-02-23T11:02:22.816Z,101556.66
2023-02-23T11:07:31.134Z,101556.19
2023-02-23T11:12:41.890Z,101556.53
2023-02-23T11:17:43.598Z,101559.25
2023-02-23T11:22:45.741Z,101554.78
2023-02-23T11:27:51.640Z,101553.16
2023-02-23T11:32:57.398Z,101553.16
2023-02-23T11:37:59.320Z,101546.25
2023-02-23T11:43:09.980Z,101560.31
2023-02-23T11:48:27.105Z,101565.84
2023-02-23T11:53:34.922Z,101557.91
2023-02-23T11:58:40.289Z,101566.19
2023-02-23T12:03:51.696Z,101558.19
2023-02-23T12:08:56.957Z,101556.34
2023-02-23T12:14:03.826Z,101545.59
2023-02-23T12:19:32.992Z,101530.34
2023-02-23T12:24:34.677Z,101540.63
2023-02-23T12:29:39.401Z,101549.19
2023-02-23T12:34:53.098Z,101536.41
2023-02-23T12:40:23.678Z,101537.81
2023-02-23T12:45:37.761Z,101535.06
2023-02-23T12:50:45.851Z,101531.44
2023-02-23T12:56:14.655Z,101538.13
2023-02-23T13:01:34.546Z,101531.13
2023-02-23T13:06:50.871Z,101532.09
2023-02-23T13:12:06.803Z,101536.41
2023-02-23T13:17:25.670Z,101551.22
2023-02-23T13:22:33.706Z,101549.19
2023-02-23T13:27:46.082Z,101542.53
2023-02-23T13:32:47.935Z,101542.91
2023-02-23T13:38:01.741Z,101553.25
2023-02-23T13:43:18.730Z,101567.56
2023-02-23T13:48:35.142Z,101560.66
2023-02-23T13:53:41.684Z,101566.63
2023-02-23T13:58:54.124Z,101568.19
2023-02-23T14:04:04.780Z,101566.53
2023-02-23T14:09:23.835Z,101570.94
2023-02-23T14:14:31.846Z,101575.03
2023-02-23T14:19:40.937Z,101581.38
2023-02-23T14:24:42.629Z,101587.66
2023-02-23T14:30:05.289Z,101586.94
2023-02-23T14:35:32.434Z,101588.88
2023-02-23T14:40:40.884Z,101591.44
2023-02-23T14:45:44.377Z,101601.31
2023-02-23T14:50:45.983Z,101586.59
2023-02-23T14:55:48.693Z,101585.19
2023-02-23T15:00:52.082Z,101602.75
2023-02-23T15:05:59.662Z,101606.44
2023-02-23T15:11:05.851Z,101615.00
2023-02-23T15:16:14.267Z,101621.34
2023-02-23T15:21:19.895Z,101612.59
2023-02-23T15:26:48.059Z,101603.84
2023-02-23T15:31:53.179Z,101622.09
2023-02-23T15:37:03.001Z,101633.78
2023-02-23T15:42:06.510Z,101624.31
2023-02-23T15:47:18.070Z,101629.44
2023-02-23T15:52:24.484Z,101642.09
2023-02-23T15:57:48.285Z,101638.25
2023-02-23T16:02:50.652Z,101634.94
2023-02-23T16:08:06.310Z,101644.47
2023-02-23T16:13:08.083Z,101650.56
2023-02-23T16:18:17.707Z,101651.28
2023-02-23T16:23:44.600Z,101657.78
2023-02-23T16:28:47.074Z,101657.25
2023-02-23T16:33:57.056Z,101660.44
2023-02-23T16:39:02.166Z,101668.03
2023-02-23T16:44:06.253Z,101672.50
2023-02-23T16:49:12.331Z,101665.25
2023-02-23T16:54:14.010Z,101671.69
2023-02-23T16:59:18.690Z,101677.69
2023-02-23T17:04:20.906Z,101683.69
2023-02-23T17:09:24.248Z,101681.69
2023-02-23T17:14:31.985Z,101679.31
2023-02-23T17:19:33.764Z,101680.59
2023-02-23T17:24:35.574Z,101685.63
2023-02-23T17:29:37.257Z,101695.91
2023-02-23T17:34:39.048Z,101692.47
2023-02-23T17:39:41.061Z,101693.91
2023-02-23T17:44:42.765Z,101701.25
2023-02-23T17:49:44.443Z,101712.25
2023-02-23T17:54:46.285Z,101711.53
2023-02-23T17:59:47.983Z,101720.06
2023-02-23T18:04:50.605Z,101717.72
2023-02-23T18:09:52.587Z,101718.47
2023-02-23T18:14:54.270Z,101718.91
2023-02-23T18:19:56.027Z,101733.34
2023-02-23T18:24:58.247Z,101726.41
2023-02-23T18:29:59.898Z,101730.75
2023-02-23T18:35:01.573Z,101734.22
2023-02-23T18:40:04.933Z,101733.75
2023-02-23T18:45:08.146Z,101735.34
2023-02-23T18:50:12.663Z,101737.91
2023-02-23T18:55:15.367Z,101735.16
2023-02-23T19:00:18.471Z,101737.16
2023-02-23T19:05:21.967Z,101735.53
2023-02-23T19:10:23.777Z,101718.94
2023-02-23T19:15:25.387Z,101724.56
2023-02-23T19:20:32.544Z,101719.50
2023-02-23T19:25:34.337Z,101739.06
2023-02-23T19:30:35.960Z,101725.34
2023-02-23T19:35:41.504Z,101719.44
2023-02-23T19:40:43.150Z,101718.84
2023-02-23T19:45:48.950Z,101717.50
2023-02-23T19:50:51.668Z,101717.19
2023-02-23T19:56:05.968Z,101712.28
2023-02-23T20:01:10.325Z,101714.16
2023-02-23T20:06:13.648Z,101713.28
2023-02-23T20:11:15.714Z,101709.53
2023-02-23T20:16:17.610Z,101706.94
2023-02-23T20:21:23.479Z,101710.34
2023-02-23T20:26:30.962Z,101711.41
2023-02-23T20:31:35.721Z,101708.81
2023-02-23T20:36:37.688Z,101705.97
2023-02-23T20:41:43.308Z,101708.53
2023-02-23T20:46:45.126Z,101698.47
2023-02-23T20:51:48.649Z,101693.13
2023-02-23T20:56:58.918Z,101694.59
2023-02-23T21:02:01.672Z,101687.38
2023-02-23T21:07:07.753Z,101686.03
2023-02-23T21:12:13.930Z,101679.16
2023-02-23T21:17:15.757Z,101675.78
2023-02-23T21:22:17.883Z,101680.19
2023-02-23T21:27:19.613Z,101675.31
2023-02-23T21:32:22.603Z,101668.44
2023-02-23T21:37:24.324Z,101675.38
2023-02-23T21:42:26.601Z,101672.16
2023-02-23T21:47:28.193Z,101663.84
2023-02-23T21:52:31.454Z,101659.19
2023-02-23T21:57:33.292Z,101658.47
2023-02-23T22:02:37.696Z,101656.41
2023-02-23T22:07:39.470Z,101657.25
2023-02-23T22:12:41.074Z,101649.25
2023-02-23T22:17:43.788Z,101649.53
2023-02-23T22:22:45.616Z,101648.50
2023-02-23T22:27:47.364Z,101632.19
2023-02-23T22:32:49.159Z,101644.38
2023-02-23T22:37:50.972Z,101639.06
2023-02-23T22:42:54.594Z,101635.84
2023-02-23T22:48:01.474Z,101635.13
2023-02-23T22:53:04.241Z,101629.13
2023-02-23T22:58:09.277Z,101629.13
2023-02-23T23:03:13.143Z,101615.84
2023-02-23T23:08:15.305Z,101609.13
2023-02-23T23:13:17.616Z,101598.31
2023-02-23T23:18:20.826Z,101592.44
2023-02-23T23:23:26.099Z,101587.97
2023-02-23T23:28:28.627Z,101593.91
2023-02-23T23:33:30.635Z,101580.09
2023-02-23T23:38:32.972Z,101567.63
2023-02-23T23:43:36.991Z,101551.16
2023-02-23T23:48:39.317Z,101547.94
2023-02-23T23:53:40.913Z,101536.75
2023-02-23T23:58:42.481Z,101540.75
